F44 weather

Athens Municipal Airport
Athens, Texas, United States

Public forecast

Using degrees Fahrenheit for public forecast. Weather courtesy of forecast.io.

Current aviation weather report (METAR) for Athens Municipal Airport

Retrieved UTC (0 seconds ago):

Closest aviation forecast (TAF) to Athens Municipal Airport

Closest forecast is Tyler Pounds Regional Airport, 24.5 nm (45.3 km) ENE. Retrieved 2020/07/09 06:39 UTC (1 hour ago):

TAF KTYR 090537Z 0906/1006 18009KT P6SM SKC FM091000 19008KT P6SM BKN015 FM091500 20011KT P6SM BKN023 FM091700 20010KT P6SM SCT035 FM100100 17007KT P6SM SKC